createdAt,value
2018-02-11T00:01:01.666Z,5.40
2018-02-11T00:02:04.190Z,5.40
2018-02-11T00:03:06.678Z,5.40
2018-02-11T00:04:09.941Z,5.40
2018-02-11T00:05:12.433Z,5.30
2018-02-11T00:06:15.698Z,5.30
2018-02-11T00:07:18.384Z,5.30
2018-02-11T00:08:21.646Z,5.30
2018-02-11T00:09:24.233Z,5.30
2018-02-11T00:10:27.494Z,5.30
2018-02-11T00:11:30.007Z,5.30
2018-02-11T00:12:32.858Z,5.40
2018-02-11T00:13:36.116Z,5.40
2018-02-11T00:14:38.617Z,5.40
2018-02-11T00:15:41.198Z,5.40
2018-02-11T00:16:43.714Z,5.40
2018-02-11T00:17:46.241Z,5.40
2018-02-11T00:18:48.726Z,5.40
2018-02-11T00:19:51.213Z,5.40
2018-02-11T00:20:53.701Z,5.40
2018-02-11T00:21:56.957Z,5.40
2018-02-11T00:22:59.469Z,5.50
2018-02-11T00:24:01.973Z,5.50
2018-02-11T00:25:04.460Z,5.50
2018-02-11T00:26:07.753Z,5.50
2018-02-11T00:27:11.015Z,5.40
2018-02-11T00:28:13.910Z,5.40
2018-02-11T00:29:17.162Z,5.50
2018-02-11T00:30:19.645Z,5.40
2018-02-11T00:31:22.226Z,5.50
2018-02-11T00:32:25.482Z,5.40
2018-02-11T00:33:27.994Z,5.40
2018-02-11T00:34:30.498Z,5.40
2018-02-11T00:35:32.986Z,5.50
2018-02-11T00:36:35.470Z,5.50
2018-02-11T00:37:44.500Z,5.50
2018-02-11T00:38:47.009Z,5.40
2018-02-11T00:39:49.511Z,5.40
2018-02-11T00:40:52.794Z,5.40
2018-02-11T00:41:56.049Z,5.40
2018-02-11T00:42:58.534Z,5.40
2018-02-11T00:44:01.445Z,5.40
2018-02-11T00:45:03.938Z,5.40
2018-02-11T00:46:06.424Z,5.40
2018-02-11T00:47:08.922Z,5.50
2018-02-11T00:48:12.174Z,5.40
2018-02-11T00:49:14.969Z,5.40
2018-02-11T00:50:18.218Z,5.40
2018-02-11T00:51:20.710Z,5.40
2018-02-11T00:52:23.965Z,5.30
2018-02-11T00:53:26.454Z,5.30
2018-02-11T00:54:28.997Z,5.30
2018-02-11T00:55:31.489Z,5.30
2018-02-11T00:56:34.745Z,5.30
2018-02-11T00:57:37.253Z,5.30
2018-02-11T00:58:40.498Z,5.30
2018-02-11T00:59:43.000Z,5.30
2018-02-11T01:00:46.253Z,5.30
2018-02-11T01:01:48.747Z,5.30
2018-02-11T01:02:52.003Z,5.30
2018-02-11T01:03:54.493Z,5.30
2018-02-11T01:04:57.017Z,5.20
2018-02-11T01:05:59.546Z,5.20
2018-02-11T01:07:02.041Z,5.30
2018-02-11T01:08:04.529Z,5.20
2018-02-11T01:09:07.028Z,5.20
2018-02-11T01:10:09.537Z,5.20
2018-02-11T01:11:12.036Z,5.20
2018-02-11T01:12:15.294Z,5.20
2018-02-11T01:13:17.773Z,5.20
2018-02-11T01:14:20.265Z,5.20
2018-02-11T01:15:23.546Z,5.10
2018-02-11T01:16:26.804Z,5.10
2018-02-11T01:17:29.389Z,5.10
2018-02-11T01:18:32.633Z,5.10
2018-02-11T01:19:35.117Z,5.10
2018-02-11T01:20:39.220Z,5.10
2018-02-11T01:21:42.477Z,5.10
2018-02-11T01:22:44.976Z,5.10
2018-02-11T01:23:48.234Z,5.10
2018-02-11T01:24:50.717Z,5.10
2018-02-11T01:25:53.246Z,5.10
2018-02-11T01:26:55.725Z,5.00
2018-02-11T01:27:58.214Z,5.00
2018-02-11T01:29:01.470Z,5.00
2018-02-11T01:30:03.967Z,5.00
2018-02-11T01:31:07.238Z,5.00
2018-02-11T01:32:09.729Z,5.00
2018-02-11T01:33:12.985Z,5.00
2018-02-11T01:34:15.482Z,5.00
2018-02-11T01:35:17.973Z,5.00
2018-02-11T01:36:20.477Z,5.00
2018-02-11T01:37:22.973Z,5.00
2018-02-11T01:38:26.229Z,5.00
2018-02-11T01:39:28.717Z,5.00
2018-02-11T01:40:31.977Z,5.00
2018-02-11T01:41:36.002Z,5.00
2018-02-11T01:42:39.271Z,5.00
2018-02-11T01:43:42.533Z,5.10
2018-02-11T01:44:45.030Z,5.00
2018-02-11T01:45:48.282Z,5.00
2018-02-11T01:46:50.789Z,5.00
2018-02-11T01:47:53.282Z,4.90
2018-02-11T01:48:55.766Z,4.90
2018-02-11T01:50:10.166Z,4.90
2018-02-11T01:51:12.650Z,4.90
2018-02-11T01:52:15.494Z,4.90
2018-02-11T01:53:18.750Z,4.90
2018-02-11T01:54:22.034Z,4.90
2018-02-11T01:55:24.525Z,4.90
2018-02-11T01:56:27.810Z,4.90
2018-02-11T01:57:31.098Z,4.90
2018-02-11T01:58:33.584Z,4.90
2018-02-11T01:59:36.070Z,4.90
2018-02-11T02:00:38.553Z,4.90
2018-02-11T02:01:41.044Z,4.80
2018-02-11T02:02:44.313Z,4.80
2018-02-11T02:03:46.802Z,4.80
2018-02-11T02:04:50.063Z,4.80
2018-02-11T02:05:52.641Z,4.80
2018-02-11T02:06:55.904Z,4.80
2018-02-11T02:07:58.411Z,4.80
2018-02-11T02:09:00.902Z,4.80
2018-02-11T02:10:03.426Z,4.80
2018-02-11T02:11:06.678Z,4.80
2018-02-11T02:12:09.185Z,4.80
2018-02-11T02:13:11.962Z,4.80
2018-02-11T02:14:14.515Z,4.80
2018-02-11T02:15:17.766Z,4.80
2018-02-11T02:16:20.257Z,4.80
2018-02-11T02:17:23.522Z,4.80
2018-02-11T02:18:26.329Z,4.80
2018-02-11T02:19:28.818Z,4.90
2018-02-11T02:20:31.305Z,4.90
2018-02-11T02:21:33.786Z,4.90
2018-02-11T02:22:36.289Z,4.90
2018-02-11T02:23:38.793Z,4.90
2018-02-11T02:24:41.290Z,4.90
2018-02-11T02:25:44.636Z,4.90
2018-02-11T02:26:47.106Z,4.90
2018-02-11T02:27:49.600Z,4.90
2018-02-11T02:28:52.281Z,4.90
2018-02-11T02:29:55.544Z,4.80
2018-02-11T02:30:58.050Z,4.80
2018-02-11T02:32:00.542Z,4.90
2018-02-11T02:33:03.026Z,4.90
2018-02-11T02:34:05.553Z,4.90
2018-02-11T02:35:08.045Z,4.90
2018-02-11T02:36:10.533Z,4.90
2018-02-11T02:37:13.027Z,4.90
2018-02-11T02:38:16.289Z,4.90
2018-02-11T02:39:18.818Z,4.80
2018-02-11T02:40:21.356Z,4.90
2018-02-11T02:41:23.872Z,4.80
2018-02-11T02:42:26.360Z,4.80
2018-02-11T02:43:29.627Z,4.80
2018-02-11T02:44:32.431Z,4.80
2018-02-11T02:45:35.693Z,4.80
2018-02-11T02:46:38.958Z,4.80
2018-02-11T02:47:41.446Z,4.80
2018-02-11T02:48:44.701Z,4.80
2018-02-11T02:49:47.210Z,4.80
2018-02-11T02:50:49.720Z,4.80
2018-02-11T02:51:52.205Z,4.80
2018-02-11T02:52:54.808Z,4.90
2018-02-11T02:53:58.061Z,4.90
2018-02-11T02:55:00.573Z,4.90
2018-02-11T02:56:03.117Z,4.90
2018-02-11T02:57:06.378Z,4.90
2018-02-11T02:58:08.970Z,4.90
2018-02-11T02:59:12.234Z,4.80
2018-02-11T03:00:15.622Z,4.80
2018-02-11T03:01:18.881Z,4.80
2018-02-11T03:02:21.361Z,4.80
2018-02-11T03:03:23.873Z,4.80
2018-02-11T03:04:26.386Z,4.90
2018-02-11T03:05:28.888Z,4.90
2018-02-11T03:06:31.381Z,4.90
2018-02-11T03:07:33.901Z,4.90
2018-02-11T03:08:37.154Z,4.90
2018-02-11T03:09:39.641Z,4.90
2018-02-11T03:10:42.438Z,4.90
2018-02-11T03:11:44.925Z,4.90
2018-02-11T03:12:47.426Z,4.90
2018-02-11T03:13:49.913Z,4.90
2018-02-11T03:14:53.173Z,4.90
2018-02-11T03:15:56.079Z,4.90
2018-02-11T03:16:59.368Z,4.90
2018-02-11T03:18:02.625Z,4.90
2018-02-11T03:19:05.129Z,4.90
2018-02-11T03:20:07.617Z,4.90
2018-02-11T03:21:10.259Z,4.90
2018-02-11T03:22:12.754Z,4.90
2018-02-11T03:23:15.242Z,4.90
2018-02-11T03:24:17.725Z,4.90
2018-02-11T03:25:20.208Z,4.90
2018-02-11T03:26:23.893Z,4.90
2018-02-11T03:27:27.145Z,4.90
2018-02-11T03:28:29.634Z,4.90
2018-02-11T03:29:32.922Z,4.90
2018-02-11T03:30:36.174Z,4.90
2018-02-11T03:31:38.680Z,4.90
2018-02-11T03:32:41.169Z,4.90
2018-02-11T03:33:43.657Z,4.90
2018-02-11T03:34:46.149Z,4.80
2018-02-11T03:35:48.636Z,4.90
2018-02-11T03:36:52.183Z,4.80
2018-02-11T03:37:54.686Z,4.90
2018-02-11T03:38:57.970Z,4.90
2018-02-11T03:40:01.231Z,4.90
2018-02-11T03:41:03.717Z,4.90
2018-02-11T03:42:07.002Z,4.90
2018-02-11T03:43:10.257Z,4.90
2018-02-11T03:44:14.268Z,4.90
2018-02-11T03:45:16.761Z,4.90
2018-02-11T03:46:19.246Z,4.90
2018-02-11T03:47:21.749Z,4.90
2018-02-11T03:48:24.233Z,4.90
2018-02-11T03:49:27.489Z,4.90
2018-02-11T03:50:29.970Z,4.90
2018-02-11T03:51:32.553Z,4.90
2018-02-11T03:52:35.829Z,4.90
2018-02-11T03:53:38.318Z,5.00
2018-02-11T03:54:40.854Z,5.00
2018-02-11T03:55:43.352Z,5.00
2018-02-11T03:56:45.834Z,5.00
2018-02-11T03:57:48.341Z,5.00
2018-02-11T03:58:50.938Z,5.00
2018-02-11T03:59:54.193Z,5.00
2018-02-11T04:00:56.688Z,5.00
2018-02-11T04:01:59.941Z,5.00
2018-02-11T04:03:02.449Z,5.00
2018-02-11T04:04:04.933Z,5.00
2018-02-11T04:05:07.429Z,5.00
2018-02-11T04:06:09.913Z,5.00
2018-02-11T04:07:13.166Z,5.00
2018-02-11T04:08:15.673Z,5.00
2018-02-11T04:09:18.949Z,5.00
2018-02-11T04:10:22.202Z,5.00
2018-02-11T04:11:24.702Z,5.00
2018-02-11T04:12:27.965Z,5.10
2018-02-11T04:13:30.473Z,5.10
2018-02-11T04:14:33.529Z,5.10
2018-02-11T04:15:36.789Z,5.00
2018-02-11T04:16:39.281Z,5.00
2018-02-11T04:17:42.537Z,5.00
2018-02-11T04:18:45.050Z,5.00
2018-02-11T04:19:47.536Z,5.00
2018-02-11T04:20:50.049Z,5.00
2018-02-11T04:21:53.298Z,5.00
2018-02-11T04:22:55.781Z,5.00
2018-02-11T04:23:58.368Z,5.00
2018-02-11T04:25:01.633Z,5.00
2018-02-11T04:26:04.122Z,5.00
2018-02-11T04:27:07.373Z,5.00
2018-02-11T04:28:09.862Z,5.00
2018-02-11T04:29:13.143Z,5.00
2018-02-11T04:30:16.393Z,5.00
2018-02-11T04:31:18.921Z,5.00
2018-02-11T04:32:21.470Z,5.00
2018-02-11T04:33:24.729Z,5.00
2018-02-11T04:34:27.238Z,5.00
2018-02-11T04:35:29.774Z,5.00
2018-02-11T04:36:33.030Z,5.00
2018-02-11T04:37:35.517Z,5.00
2018-02-11T04:38:38.765Z,5.00
2018-02-11T04:39:41.296Z,5.00
2018-02-11T04:40:43.786Z,5.10
2018-02-11T04:41:46.277Z,5.10
2018-02-11T04:42:48.763Z,5.10
2018-02-11T04:43:52.014Z,5.10
2018-02-11T04:44:54.531Z,5.10
2018-02-11T04:45:57.030Z,5.10
2018-02-11T04:46:59.517Z,5.10
2018-02-11T04:48:02.028Z,5.10
2018-02-11T04:49:04.521Z,5.10
2018-02-11T04:50:07.355Z,5.10
2018-02-11T04:51:10.610Z,5.10
2018-02-11T04:52:13.097Z,5.10
2018-02-11T04:53:16.345Z,5.10
2018-02-11T04:54:18.833Z,5.10
2018-02-11T04:55:22.129Z,5.10
2018-02-11T04:56:25.385Z,5.10
2018-02-11T04:57:27.901Z,5.10
2018-02-11T04:58:30.393Z,5.10
2018-02-11T04:59:32.890Z,5.10
2018-02-11T05:00:35.473Z,5.10
2018-02-11T05:01:38.735Z,5.10
2018-02-11T05:02:41.230Z,5.10
2018-02-11T05:03:43.738Z,5.10
2018-02-11T05:04:46.230Z,5.10
2018-02-11T05:05:49.518Z,5.10
2018-02-11T05:06:52.021Z,5.10
2018-02-11T05:07:54.512Z,5.10
2018-02-11T05:08:57.290Z,5.10
2018-02-11T05:09:59.785Z,5.20
2018-02-11T05:11:03.186Z,5.20
2018-02-11T05:12:06.453Z,5.20
2018-02-11T05:13:08.938Z,5.20
2018-02-11T05:14:12.198Z,5.20
2018-02-11T05:15:14.698Z,5.20
2018-02-11T05:16:17.250Z,5.20
2018-02-11T05:17:20.501Z,5.20
2018-02-11T05:18:22.989Z,5.20
2018-02-11T05:19:26.238Z,5.20
2018-02-11T05:20:28.726Z,5.20
2018-02-11T05:21:31.550Z,5.20
2018-02-11T05:22:34.010Z,5.20
2018-02-11T05:23:36.501Z,5.20
2018-02-11T05:24:38.990Z,5.20
2018-02-11T05:25:41.494Z,5.20
2018-02-11T05:26:44.153Z,5.20
2018-02-11T05:27:46.714Z,5.20
2018-02-11T05:28:49.966Z,5.30
2018-02-11T05:29:52.461Z,5.30
2018-02-11T05:30:55.722Z,5.20
2018-02-11T05:31:58.233Z,5.30
2018-02-11T05:33:00.723Z,5.20
2018-02-11T05:34:03.230Z,5.20
2018-02-11T05:35:06.517Z,5.20
2018-02-11T05:36:09.781Z,5.20
2018-02-11T05:37:12.505Z,5.20
2018-02-11T05:38:14.989Z,5.30
2018-02-11T05:39:17.487Z,5.30
2018-02-11T05:40:19.975Z,5.30
2018-02-11T05:41:22.467Z,5.30
2018-02-11T05:42:24.975Z,5.30
2018-02-11T05:43:27.461Z,5.30
2018-02-11T05:44:30.715Z,5.30
2018-02-11T05:45:33.209Z,5.30
2018-02-11T05:46:36.495Z,5.30
2018-02-11T05:47:39.002Z,5.30
2018-02-11T05:48:41.490Z,5.30
2018-02-11T05:49:43.981Z,5.30
2018-02-11T05:50:47.234Z,5.30
2018-02-11T05:51:49.724Z,5.30
2018-02-11T05:52:53.013Z,5.30
2018-02-11T05:53:56.268Z,5.30
2018-02-11T05:54:58.761Z,5.30
2018-02-11T05:56:02.014Z,5.30
2018-02-11T05:57:04.507Z,5.30
2018-02-11T05:58:07.813Z,5.30
2018-02-11T05:59:10.303Z,5.30
2018-02-11T06:00:12.794Z,5.30
2018-02-11T06:01:15.285Z,5.40
2018-02-11T06:02:18.577Z,5.30
2018-02-11T06:03:21.853Z,5.40
2018-02-11T06:04:25.110Z,5.40
2018-02-11T06:05:27.605Z,5.40
2018-02-11T06:06:30.864Z,5.40
2018-02-11T06:07:33.358Z,5.30
2018-02-11T06:08:36.739Z,5.40
2018-02-11T06:09:40.016Z,5.40
2018-02-11T06:10:43.282Z,5.40
2018-02-11T06:11:45.765Z,5.40
2018-02-11T06:12:49.013Z,5.30
2018-02-11T06:13:51.509Z,5.30
2018-02-11T06:14:54.765Z,5.30
2018-02-11T06:15:57.251Z,5.30
2018-02-11T06:16:59.747Z,5.30
2018-02-11T06:18:02.264Z,5.30
2018-02-11T06:19:05.069Z,5.30
2018-02-11T06:20:08.325Z,5.30
2018-02-11T06:21:10.809Z,5.30
2018-02-11T06:22:14.066Z,5.40
2018-02-11T06:23:16.574Z,5.40
2018-02-11T06:24:19.230Z,5.40
2018-02-11T06:25:22.491Z,5.40
2018-02-11T06:26:24.978Z,5.40
2018-02-11T06:27:28.241Z,5.40
2018-02-11T06:28:30.749Z,5.40
2018-02-11T06:29:33.293Z,5.40
2018-02-11T06:30:36.554Z,5.40
2018-02-11T06:31:39.074Z,5.40
2018-02-11T06:32:41.567Z,5.50
2018-02-11T06:33:44.065Z,5.50
2018-02-11T06:34:47.336Z,5.50
2018-02-11T06:35:50.637Z,5.50
2018-02-11T06:36:53.902Z,5.50
2018-02-11T06:37:57.162Z,5.50
2018-02-11T06:38:59.649Z,5.50
2018-02-11T06:40:02.165Z,5.50
2018-02-11T06:41:04.662Z,5.50
2018-02-11T06:42:07.150Z,5.50
2018-02-11T06:43:10.429Z,5.50
2018-02-11T06:44:13.014Z,5.50
2018-02-11T06:45:16.406Z,5.50
2018-02-11T06:46:18.897Z,5.50
2018-02-11T06:47:21.395Z,5.50
2018-02-11T06:48:23.894Z,5.60
2018-02-11T06:49:27.161Z,5.50
2018-02-11T06:50:31.498Z,5.50
2018-02-11T06:51:34.006Z,5.50
2018-02-11T06:52:36.493Z,5.50
2018-02-11T06:53:39.020Z,5.50
2018-02-11T06:54:41.505Z,5.50
2018-02-11T06:55:45.218Z,5.50
2018-02-11T06:56:47.721Z,5.60
2018-02-11T06:57:50.209Z,5.50
2018-02-11T06:58:52.715Z,5.50
2018-02-11T06:59:56.025Z,5.50
2018-02-11T07:00:59.310Z,5.60
2018-02-11T07:02:01.804Z,5.60
2018-02-11T07:03:04.305Z,5.60
2018-02-11T07:04:06.797Z,5.60
2018-02-11T07:05:10.075Z,5.60
2018-02-11T07:06:13.362Z,5.60
2018-02-11T07:07:16.617Z,5.60
2018-02-11T07:08:19.114Z,5.60
2018-02-11T07:09:22.370Z,5.60
2018-02-11T07:10:24.867Z,5.60
2018-02-11T07:11:28.155Z,5.60
2018-02-11T07:12:30.645Z,5.60
2018-02-11T07:13:33.150Z,5.70
2018-02-11T07:14:35.674Z,5.70
2018-02-11T07:15:38.171Z,5.60
2018-02-11T07:16:40.681Z,5.70
2018-02-11T07:17:43.209Z,5.70
2018-02-11T07:18:45.714Z,5.70
2018-02-11T07:19:48.206Z,5.70
2018-02-11T07:20:50.696Z,5.70
2018-02-11T07:21:53.502Z,5.70
2018-02-11T07:22:56.782Z,5.70
2018-02-11T07:24:00.050Z,5.70
2018-02-11T07:25:02.547Z,5.70
2018-02-11T07:26:05.105Z,5.70
2018-02-11T07:27:08.395Z,5.70
2018-02-11T07:28:10.894Z,5.70
2018-02-11T07:29:13.403Z,5.70
2018-02-11T07:30:16.661Z,5.70
2018-02-11T07:31:19.154Z,5.70
2018-02-11T07:32:22.437Z,5.70
2018-02-11T07:33:25.707Z,5.70
2018-02-11T07:34:28.218Z,5.70
2018-02-11T07:35:30.717Z,5.70
2018-02-11T07:36:33.209Z,5.70
2018-02-11T07:37:36.543Z,5.80
2018-02-11T07:38:39.088Z,5.70
2018-02-11T07:39:41.582Z,5.80
2018-02-11T07:40:44.076Z,5.80
2018-02-11T07:41:46.578Z,5.80
2018-02-11T07:42:49.116Z,5.80
2018-02-11T07:43:51.625Z,5.80
2018-02-11T07:44:54.124Z,5.80
2018-02-11T07:45:56.618Z,5.80
2018-02-11T07:46:59.110Z,5.80
2018-02-11T07:48:01.629Z,5.80
2018-02-11T07:49:04.135Z,5.80
2018-02-11T07:50:06.645Z,5.80
2018-02-11T07:51:09.138Z,5.80
2018-02-11T07:52:11.649Z,5.80
2018-02-11T07:53:14.225Z,5.80
2018-02-11T07:54:16.713Z,5.80
2018-02-11T07:55:19.201Z,5.90
2018-02-11T07:56:21.710Z,5.90
2018-02-11T07:57:24.813Z,5.90
2018-02-11T07:58:27.431Z,5.90
2018-02-11T07:59:30.715Z,5.90
2018-02-11T08:00:33.983Z,5.90
2018-02-11T08:01:37.241Z,5.90
2018-02-11T08:02:39.755Z,5.90
2018-02-11T08:03:42.291Z,5.90
2018-02-11T08:04:44.805Z,5.90
2018-02-11T08:05:47.317Z,5.90
2018-02-11T08:06:49.821Z,5.90
2018-02-11T08:07:52.322Z,5.90
2018-02-11T08:08:54.956Z,5.90
2018-02-11T08:09:57.443Z,5.90
2018-02-11T08:10:59.926Z,5.90
2018-02-11T08:12:02.441Z,5.90
2018-02-11T08:13:05.713Z,6.00
2018-02-11T08:14:08.987Z,5.90
2018-02-11T08:15:12.253Z,5.90
2018-02-11T08:16:14.790Z,5.90
2018-02-11T08:17:17.288Z,5.90
2018-02-11T08:18:19.781Z,5.90
2018-02-11T08:19:23.369Z,5.90
2018-02-11T08:20:26.621Z,6.00
2018-02-11T08:21:29.116Z,5.90
2018-02-11T08:22:32.914Z,6.00
2018-02-11T08:23:36.170Z,6.00
2018-02-11T08:24:38.691Z,5.90
2018-02-11T08:25:41.179Z,6.00
2018-02-11T08:26:43.673Z,6.00
2018-02-11T08:27:46.170Z,6.00
2018-02-11T08:28:48.658Z,6.00
2018-02-11T08:29:51.169Z,6.00
2018-02-11T08:30:53.676Z,6.00
2018-02-11T08:31:56.182Z,6.00
2018-02-11T08:32:58.678Z,6.00
2018-02-11T08:34:01.950Z,6.10
2018-02-11T08:35:04.515Z,6.10
2018-02-11T08:36:07.018Z,6.00
2018-02-11T08:37:09.514Z,6.10
2018-02-11T08:38:12.015Z,6.10
2018-02-11T08:39:15.273Z,6.10
2018-02-11T08:40:18.158Z,6.10
2018-02-11T08:41:20.653Z,6.10
2018-02-11T08:42:23.150Z,6.10
2018-02-11T08:43:25.655Z,6.10
2018-02-11T08:44:28.156Z,6.10
2018-02-11T08:45:31.042Z,6.10
2018-02-11T08:46:33.537Z,6.10
2018-02-11T08:47:36.030Z,6.10
2018-02-11T08:48:38.522Z,6.10
2018-02-11T08:49:41.060Z,6.10
2018-02-11T08:50:43.603Z,6.10
2018-02-11T08:51:46.120Z,6.10
2018-02-11T08:52:48.677Z,6.10
2018-02-11T08:53:51.942Z,6.20
2018-02-11T08:54:55.218Z,6.20
2018-02-11T08:55:58.544Z,6.20
2018-02-11T08:57:02.097Z,6.20
2018-02-11T08:58:05.360Z,6.20
2018-02-11T08:59:07.846Z,6.20
2018-02-11T09:00:10.875Z,6.30
2018-02-11T09:01:13.574Z,6.30
2018-02-11T09:02:16.061Z,6.30
2018-02-11T09:03:19.479Z,6.30
2018-02-11T09:04:23.357Z,6.30
2018-02-11T09:05:26.644Z,6.30
2018-02-11T09:06:29.966Z,6.30
2018-02-11T09:07:32.522Z,6.30
2018-02-11T09:08:35.104Z,6.30
2018-02-11T09:09:38.785Z,6.30
2018-02-11T09:10:44.340Z,6.30
2018-02-11T09:12:58.163Z,6.30
2018-02-11T09:14:00.793Z,6.30
2018-02-11T09:15:05.130Z,6.30
2018-02-11T09:16:10.210Z,6.30
2018-02-11T09:17:14.216Z,6.40
2018-02-11T09:18:16.818Z,6.40
2018-02-11T09:19:20.038Z,6.40
2018-02-11T09:20:25.135Z,6.40
2018-02-11T09:21:28.703Z,6.50
2018-02-11T09:22:32.797Z,6.50
2018-02-11T09:23:36.083Z,6.50
2018-02-11T09:24:40.432Z,6.50
2018-02-11T09:25:44.100Z,6.60
2018-02-11T09:26:47.463Z,6.60
2018-02-11T09:27:50.874Z,6.60
2018-02-11T09:28:55.817Z,6.60
2018-02-11T09:30:03.030Z,6.60
2018-02-11T09:31:07.166Z,6.70
2018-02-11T09:32:16.605Z,6.60
2018-02-11T09:33:19.812Z,6.70
2018-02-11T09:34:22.331Z,6.70
2018-02-11T09:36:45.606Z,6.70
2018-02-11T09:37:50.012Z,6.70
2018-02-11T09:38:53.352Z,6.70
2018-02-11T09:39:57.924Z,6.80
2018-02-11T09:41:02.344Z,6.80
2018-02-11T09:42:10.538Z,6.80
2018-02-11T09:43:13.874Z,6.80
2018-02-11T09:44:19.745Z,6.90
2018-02-11T09:45:26.070Z,6.80
2018-02-11T09:46:31.290Z,6.90
2018-02-11T09:47:35.870Z,6.90
2018-02-11T09:48:39.395Z,6.90
2018-02-11T09:49:42.941Z,6.90
2018-02-11T09:50:45.605Z,6.90
2018-02-11T09:51:49.890Z,6.90
2018-02-11T09:52:53.718Z,7.00
2018-02-11T09:53:57.242Z,7.00
2018-02-11T09:55:00.460Z,7.00
2018-02-11T09:56:08.244Z,7.00
2018-02-11T09:57:10.779Z,7.00
2018-02-11T09:58:16.496Z,7.10
2018-02-11T09:59:22.094Z,7.10
2018-02-11T10:00:25.425Z,7.10
2018-02-11T10:01:32.629Z,7.10
2018-02-11T10:02:37.278Z,7.10
2018-02-11T10:03:41.266Z,7.10
2018-02-11T10:04:45.345Z,7.20
2018-02-11T10:05:48.508Z,7.20
2018-02-11T10:06:51.073Z,7.20
2018-02-11T10:07:53.581Z,7.20
2018-02-11T10:08:56.215Z,7.20
2018-02-11T10:09:59.295Z,7.30
2018-02-11T10:11:02.217Z,7.30
2018-02-11T10:12:04.764Z,7.30
2018-02-11T10:13:08.030Z,7.30
2018-02-11T10:14:12.091Z,7.30
2018-02-11T10:15:14.581Z,7.30
2018-02-11T10:16:18.710Z,7.30
2018-02-11T10:17:24.770Z,7.30
2018-02-11T10:18:28.797Z,7.30
2018-02-11T10:19:32.347Z,7.30
2018-02-11T10:20:35.662Z,7.30
2018-02-11T10:21:38.670Z,7.30
2018-02-11T10:22:41.217Z,7.30
2018-02-11T10:23:46.604Z,7.30
2018-02-11T10:24:51.767Z,7.30
2018-02-11T10:25:56.528Z,7.30
2018-02-11T10:27:01.877Z,7.30
2018-02-11T10:28:05.243Z,7.30
2018-02-11T10:29:08.453Z,7.30
2018-02-11T10:30:13.118Z,7.30
2018-02-11T10:31:15.720Z,7.30
2018-02-11T10:32:18.432Z,7.30
2018-02-11T10:33:21.107Z,7.30
2018-02-11T10:34:25.180Z,7.30
2018-02-11T10:35:30.085Z,7.30
2018-02-11T10:36:33.614Z,7.30
2018-02-11T10:37:37.386Z,7.30
2018-02-11T10:38:41.792Z,7.40
2018-02-11T10:39:45.921Z,7.40
2018-02-11T10:40:48.565Z,7.40
2018-02-11T10:41:54.190Z,7.40
2018-02-11T10:42:57.690Z,7.50
2018-02-11T10:44:00.981Z,7.60
2018-02-11T10:45:07.196Z,7.60
2018-02-11T10:46:10.836Z,7.60
2018-02-11T10:47:17.096Z,7.70
2018-02-11T10:48:19.762Z,7.70
2018-02-11T10:49:23.336Z,7.70
2018-02-11T10:50:28.452Z,7.80
2018-02-11T10:51:33.126Z,7.80
2018-02-11T10:52:35.732Z,7.80
2018-02-11T10:53:41.740Z,7.90
2018-02-11T10:54:44.511Z,7.90
2018-02-11T10:55:47.107Z,7.90
2018-02-11T10:56:51.447Z,7.90
2018-02-11T10:57:55.076Z,7.90
2018-02-11T10:59:00.158Z,8.00
2018-02-11T11:00:05.128Z,8.00
2018-02-11T11:01:08.406Z,8.00
2018-02-11T11:02:12.232Z,8.00
2018-02-11T11:03:18.901Z,8.00
2018-02-11T11:04:23.970Z,8.00
2018-02-11T11:05:27.492Z,8.00
2018-02-11T11:06:30.239Z,8.10
2018-02-11T11:07:35.700Z,8.00
2018-02-11T11:08:39.377Z,8.00
2018-02-11T11:09:43.939Z,8.00
2018-02-11T11:10:48.520Z,8.10
2018-02-11T11:11:53.250Z,8.10
2018-02-11T11:12:55.792Z,8.10
2018-02-11T11:13:58.513Z,8.10
2018-02-11T11:15:01.782Z,8.20
2018-02-11T11:16:04.713Z,8.20
2018-02-11T11:17:07.271Z,8.20
2018-02-11T11:18:09.908Z,8.20
2018-02-11T11:19:13.211Z,8.30
2018-02-11T11:20:15.828Z,8.20
2018-02-11T11:21:18.739Z,8.30
2018-02-11T11:22:24.751Z,8.30
2018-02-11T11:23:27.368Z,8.30
2018-02-11T11:24:29.921Z,8.30
2018-02-11T11:25:32.681Z,8.30
2018-02-11T11:26:36.170Z,8.30
2018-02-11T11:27:39.557Z,8.40
2018-02-11T11:28:42.827Z,8.40
2018-02-11T11:29:45.330Z,8.40
2018-02-11T11:30:47.850Z,8.40
2018-02-11T11:31:50.389Z,8.40
2018-02-11T11:32:52.898Z,8.40
2018-02-11T11:33:56.446Z,8.40
2018-02-11T11:34:58.942Z,8.40
2018-02-11T11:36:01.476Z,8.40
2018-02-11T11:37:04.418Z,8.40
2018-02-11T11:38:07.703Z,8.40
2018-02-11T11:39:10.208Z,8.40
2018-02-11T11:40:13.611Z,8.40
2018-02-11T11:41:16.127Z,8.40
2018-02-11T11:42:18.679Z,8.40
2018-02-11T11:43:21.192Z,8.30
2018-02-11T11:44:23.727Z,8.40
2018-02-11T11:45:26.212Z,8.40
2018-02-11T11:46:29.434Z,8.40
2018-02-11T11:47:32.730Z,8.40
2018-02-11T11:48:36.042Z,8.40
2018-02-11T11:49:38.534Z,8.40
2018-02-11T11:50:41.033Z,8.40
2018-02-11T11:51:43.544Z,8.40
2018-02-11T11:52:46.911Z,8.50
2018-02-11T11:53:50.716Z,8.50
2018-02-11T11:54:53.661Z,8.50
2018-02-11T11:55:56.940Z,8.40
2018-02-11T11:57:00.258Z,8.40
2018-02-11T11:58:02.774Z,8.40
2018-02-11T11:59:05.278Z,8.50
2018-02-11T12:00:07.766Z,8.40
2018-02-11T12:01:10.363Z,8.40
2018-02-11T12:02:12.886Z,8.50
2018-02-11T12:03:17.370Z,8.50
2018-02-11T12:04:22.362Z,8.50
2018-02-11T12:05:24.876Z,8.50
2018-02-11T12:06:27.524Z,8.50
2018-02-11T12:07:30.802Z,8.60
2018-02-11T12:08:34.092Z,8.60
2018-02-11T12:09:37.491Z,8.50
2018-02-11T12:10:39.999Z,8.50
2018-02-11T12:11:42.530Z,8.50
2018-02-11T12:12:45.039Z,8.50
2018-02-11T12:13:47.564Z,8.50
2018-02-11T12:14:50.894Z,8.50
2018-02-11T12:15:53.516Z,8.50
2018-02-11T12:16:56.070Z,8.50
2018-02-11T12:17:58.608Z,8.50
2018-02-11T12:19:01.158Z,8.50
2018-02-11T12:20:04.471Z,8.60
2018-02-11T12:21:07.726Z,8.60
2018-02-11T12:22:10.230Z,8.60
2018-02-11T12:23:13.734Z,8.70
2018-02-11T12:24:16.283Z,8.60
2018-02-11T12:25:19.562Z,8.70
2018-02-11T12:26:22.854Z,8.70
2018-02-11T12:27:25.405Z,8.70
2018-02-11T12:28:28.713Z,8.70
2018-02-11T12:29:31.522Z,8.70
2018-02-11T12:30:34.023Z,8.70
2018-02-11T12:31:38.721Z,8.70
2018-02-11T12:32:47.698Z,8.70
2018-02-11T12:33:51.142Z,8.70
2018-02-11T12:34:54.562Z,8.70
2018-02-11T12:35:57.072Z,8.70
2018-02-11T12:36:59.662Z,8.70
2018-02-11T12:38:02.171Z,8.70
2018-02-11T12:39:04.681Z,8.70
2018-02-11T12:40:07.325Z,8.70
2018-02-11T12:41:09.823Z,8.70
2018-02-11T12:42:12.370Z,8.70
2018-02-11T12:43:14.898Z,8.70
2018-02-11T12:44:17.458Z,8.70
2018-02-11T12:45:20.129Z,8.70
2018-02-11T12:46:22.707Z,8.70
2018-02-11T12:47:25.207Z,8.70
2018-02-11T12:48:27.694Z,8.70
2018-02-11T12:49:31.004Z,8.60
2018-02-11T12:50:34.547Z,8.60
2018-02-11T12:51:37.111Z,8.60
2018-02-11T12:52:39.608Z,8.60
2018-02-11T12:53:46.728Z,8.60
2018-02-11T12:54:49.992Z,8.50
2018-02-11T12:55:52.523Z,8.60
2018-02-11T12:56:55.791Z,8.60
2018-02-11T12:57:58.311Z,8.50
2018-02-11T12:59:00.892Z,8.60
2018-02-11T13:00:03.468Z,8.60
2018-02-11T13:01:06.012Z,8.50
2018-02-11T13:02:08.533Z,8.40
2018-02-11T13:03:11.973Z,8.40
2018-02-11T13:04:14.513Z,8.40
2018-02-11T13:05:17.072Z,8.30
2018-02-11T13:06:19.613Z,8.30
2018-02-11T13:07:22.113Z,8.30
2018-02-11T13:08:24.607Z,8.20
2018-02-11T13:09:27.109Z,8.20
2018-02-11T13:10:30.376Z,8.30
2018-02-11T13:11:32.898Z,8.20
2018-02-11T13:12:35.463Z,8.20
2018-02-11T13:13:38.003Z,8.20
2018-02-11T13:14:41.272Z,8.30
2018-02-11T13:15:43.782Z,8.20
2018-02-11T13:16:47.587Z,8.30
2018-02-11T13:17:50.085Z,8.30
2018-02-11T13:18:52.609Z,8.30
2018-02-11T13:19:55.146Z,8.30
2018-02-11T13:20:58.723Z,8.20
2018-02-11T13:22:01.516Z,8.20
2018-02-11T13:23:04.783Z,8.10
2018-02-11T13:24:08.045Z,8.10
2018-02-11T13:25:10.647Z,8.10
2018-02-11T13:26:13.146Z,8.10
2018-02-11T13:27:15.886Z,8.10
2018-02-11T13:28:18.392Z,8.20
2018-02-11T13:29:20.894Z,8.20
2018-02-11T13:30:23.451Z,8.20
2018-02-11T13:31:25.924Z,8.20
2018-02-11T13:32:29.212Z,8.20
2018-02-11T13:33:32.474Z,8.20
2018-02-11T13:34:36.288Z,8.20
2018-02-11T13:35:38.953Z,8.30
2018-02-11T13:36:41.495Z,8.30
2018-02-11T13:37:44.018Z,8.30
2018-02-11T13:38:46.506Z,8.30
2018-02-11T13:39:49.001Z,8.30
2018-02-11T13:40:51.505Z,8.30
2018-02-11T13:41:54.005Z,8.30
2018-02-11T13:42:56.608Z,8.30
2018-02-11T13:43:59.105Z,8.30
2018-02-11T13:45:01.643Z,8.30
2018-02-11T13:46:04.151Z,8.30
2018-02-11T13:47:06.665Z,8.30
2018-02-11T13:48:09.189Z,8.40
2018-02-11T13:49:11.710Z,8.40
2018-02-11T13:50:15.034Z,8.30
2018-02-11T13:51:17.544Z,8.30
2018-02-11T13:52:20.041Z,8.30
2018-02-11T13:53:23.736Z,8.30
2018-02-11T13:54:26.227Z,8.30
2018-02-11T13:55:28.723Z,8.30
2018-02-11T13:56:31.260Z,8.30
2018-02-11T13:57:33.763Z,8.30
2018-02-11T13:58:36.479Z,8.30
2018-02-11T13:59:38.982Z,8.30
2018-02-11T14:00:41.482Z,8.40
2018-02-11T14:01:44.754Z,8.40